sensor_id;sensor_type;location;lat;lon;timestamp;temperature;humidity
40053;DHT22;25758;48.200;16.338;2023-08-07T00:01:27;15.40;99.90
40053;DHT22;25758;48.200;16.338;2023-08-07T00:03:52;15.50;99.90
40053;DHT22;25758;48.200;16.338;2023-08-07T00:06:18;15.70;99.90
40053;DHT22;25758;48.200;16.338;2023-08-07T00:08:45;15.40;99.90
40053;DHT22;25758;48.200;16.338;2023-08-07T00:11:11;15.40;99.90
40053;DHT22;25758;48.200;16.338;2023-08-07T00:13:37;15.40;99.90
40053;DHT22;25758;48.200;16.338;2023-08-07T00:16:10;15.40;99.90
40053;DHT22;25758;48.200;16.338;2023-08-07T00:18:53;15.40;99.90
40053;DHT22;25758;48.200;16.338;2023-08-07T00:21:22;15.50;99.90
40053;DHT22;25758;48.200;16.338;2023-08-07T00:23:48;15.40;99.90
40053;DHT22;25758;48.200;16.338;2023-08-07T00:26:15;15.50;99.90
40053;DHT22;25758;48.200;16.338;2023-08-07T00:28:41;15.50;99.90
40053;DHT22;25758;48.200;16.338;2023-08-07T00:31:07;15.50;99.90
40053;DHT22;25758;48.200;16.338;2023-08-07T00:33:32;15.50;99.90
40053;DHT22;25758;48.200;16.338;2023-08-07T00:35:58;15.50;99.90
40053;DHT22;25758;48.200;16.338;2023-08-07T00:38:24;15.40;99.90
40053;DHT22;25758;48.200;16.338;2023-08-07T00:40:49;15.50;99.90
40053;DHT22;25758;48.200;16.338;2023-08-07T00:43:15;15.50;99.90
40053;DHT22;25758;48.200;16.338;2023-08-07T00:45:47;15.40;99.90
40053;DHT22;25758;48.200;16.338;2023-08-07T00:48:14;15.40;99.90
40053;DHT22;25758;48.200;16.338;2023-08-07T00:50:42;15.40;99.90
40053;DHT22;25758;48.200;16.338;2023-08-07T00:53:09;15.40;99.90
40053;DHT22;25758;48.200;16.338;2023-08-07T00:55:35;15.40;99.90
40053;DHT22;25758;48.200;16.338;2023-08-07T00:58:01;15.50;99.90
40053;DHT22;25758;48.200;16.338;2023-08-07T01:00:30;15.40;99.90
40053;DHT22;25758;48.200;16.338;2023-08-07T01:02:56;15.50;99.90
40053;DHT22;25758;48.200;16.338;2023-08-07T01:05:24;16.00;99.90
40053;DHT22;25758;48.200;16.338;2023-08-07T01:07:53;15.50;99.90
40053;DHT22;25758;48.200;16.338;2023-08-07T01:10:25;15.40;99.90
40053;DHT22;25758;48.200;16.338;2023-08-07T01:13:03;15.40;99.90
40053;DHT22;25758;48.200;16.338;2023-08-07T01:15:33;15.30;99.90
40053;DHT22;25758;48.200;16.338;2023-08-07T01:18:00;15.40;99.90
40053;DHT22;25758;48.200;16.338;2023-08-07T01:20:33;15.30;99.90
40053;DHT22;25758;48.200;16.338;2023-08-07T01:26:05;15.40;99.90
40053;DHT22;25758;48.200;16.338;2023-08-07T01:28:36;15.40;99.90
40053;DHT22;25758;48.200;16.338;2023-08-07T01:31:11;15.40;99.90
40053;DHT22;25758;48.200;16.338;2023-08-07T01:37:13;15.40;99.90
40053;DHT22;25758;48.200;16.338;2023-08-07T01:39:40;15.40;99.90
40053;DHT22;25758;48.200;16.338;2023-08-07T01:42:07;15.40;99.90
40053;DHT22;25758;48.200;16.338;2023-08-07T01:44:33;15.40;99.90
40053;DHT22;25758;48.200;16.338;2023-08-07T01:46:58;15.40;99.90
40053;DHT22;25758;48.200;16.338;2023-08-07T01:49:24;15.40;99.90
40053;DHT22;25758;48.200;16.338;2023-08-07T01:51:50;15.40;99.90
40053;DHT22;25758;48.200;16.338;2023-08-07T01:54:36;15.50;99.90
40053;DHT22;25758;48.200;16.338;2023-08-07T01:57:01;15.50;99.90
40053;DHT22;25758;48.200;16.338;2023-08-07T01:59:27;15.50;99.90
40053;DHT22;25758;48.200;16.338;2023-08-07T02:01:53;15.50;99.90
40053;DHT22;25758;48.200;16.338;2023-08-07T02:04:18;15.50;99.90
40053;DHT22;25758;48.200;16.338;2023-08-07T02:06:44;15.40;99.90
40053;DHT22;25758;48.200;16.338;2023-08-07T02:09:09;15.40;99.90
40053;DHT22;25758;48.200;16.338;2023-08-07T02:11:35;15.50;99.90
40053;DHT22;25758;48.200;16.338;2023-08-07T02:14:01;15.50;99.90
40053;DHT22;25758;48.200;16.338;2023-08-07T02:16:26;15.50;99.90
40053;DHT22;25758;48.200;16.338;2023-08-07T02:18:52;15.50;99.90
40053;DHT22;25758;48.200;16.338;2023-08-07T02:21:18;15.50;99.90
40053;DHT22;25758;48.200;16.338;2023-08-07T02:23:43;15.40;99.90
40053;DHT22;25758;48.200;16.338;2023-08-07T02:26:10;15.50;99.90
40053;DHT22;25758;48.200;16.338;2023-08-07T02:28:35;15.50;99.90
40053;DHT22;25758;48.200;16.338;2023-08-07T02:31:01;15.40;99.90
40053;DHT22;25758;48.200;16.338;2023-08-07T02:33:26;15.50;99.90
40053;DHT22;25758;48.200;16.338;2023-08-07T02:35:55;15.40;99.90
40053;DHT22;25758;48.200;16.338;2023-08-07T02:38:21;15.40;99.90
40053;DHT22;25758;48.200;16.338;2023-08-07T02:40:46;15.40;99.90
40053;DHT22;25758;48.200;16.338;2023-08-07T02:43:12;15.50;99.90
40053;DHT22;25758;48.200;16.338;2023-08-07T02:45:38;15.40;99.90
40053;DHT22;25758;48.200;16.338;2023-08-07T02:51:26;15.40;99.90
40053;DHT22;25758;48.200;16.338;2023-08-07T02:53:52;15.40;99.90
40053;DHT22;25758;48.200;16.338;2023-08-07T02:56:18;15.50;99.90
40053;DHT22;25758;48.200;16.338;2023-08-07T02:58:44;15.40;99.90
40053;DHT22;25758;48.200;16.338;2023-08-07T03:01:10;15.40;99.90
40053;DHT22;25758;48.200;16.338;2023-08-07T03:03:37;15.40;99.90
40053;DHT22;25758;48.200;16.338;2023-08-07T03:06:03;15.40;99.90
40053;DHT22;25758;48.200;16.338;2023-08-07T03:08:29;15.30;99.90
40053;DHT22;25758;48.200;16.338;2023-08-07T03:10:55;15.30;99.90
40053;DHT22;25758;48.200;16.338;2023-08-07T03:13:22;15.30;99.90
40053;DHT22;25758;48.200;16.338;2023-08-07T03:15:48;15.30;99.90
40053;DHT22;25758;48.200;16.338;2023-08-07T03:18:18;15.30;99.90
40053;DHT22;25758;48.200;16.338;2023-08-07T03:20:44;15.30;99.90
40053;DHT22;25758;48.200;16.338;2023-08-07T03:23:18;15.30;99.90
40053;DHT22;25758;48.200;16.338;2023-08-07T03:25:44;15.30;99.90
40053;DHT22;25758;48.200;16.338;2023-08-07T03:28:10;15.20;99.90
40053;DHT22;25758;48.200;16.338;2023-08-07T03:30:35;15.20;99.90
40053;DHT22;25758;48.200;16.338;2023-08-07T03:33:01;15.20;99.90
40053;DHT22;25758;48.200;16.338;2023-08-07T03:35:26;15.20;99.90
40053;DHT22;25758;48.200;16.338;2023-08-07T03:37:52;15.20;99.90
40053;DHT22;25758;48.200;16.338;2023-08-07T03:44:20;15.10;99.90
40053;DHT22;25758;48.200;16.338;2023-08-07T03:46:46;15.10;99.90
40053;DHT22;25758;48.200;16.338;2023-08-07T03:49:11;15.10;99.90
40053;DHT22;25758;48.200;16.338;2023-08-07T03:51:37;15.10;99.90
40053;DHT22;25758;48.200;16.338;2023-08-07T03:54:02;15.10;99.90
40053;DHT22;25758;48.200;16.338;2023-08-07T03:56:28;15.00;99.90
40053;DHT22;25758;48.200;16.338;2023-08-07T03:58:57;15.10;99.90
40053;DHT22;25758;48.200;16.338;2023-08-07T04:01:23;15.10;99.90
40053;DHT22;25758;48.200;16.338;2023-08-07T04:07:20;15.00;99.90
40053;DHT22;25758;48.200;16.338;2023-08-07T04:09:45;15.00;99.90
40053;DHT22;25758;48.200;16.338;2023-08-07T04:12:11;15.10;99.90
40053;DHT22;25758;48.200;16.338;2023-08-07T04:14:36;15.10;99.90
40053;DHT22;25758;48.200;16.338;2023-08-07T04:17:02;15.00;99.90
40053;DHT22;25758;48.200;16.338;2023-08-07T04:19:28;15.00;99.90
40053;DHT22;25758;48.200;16.338;2023-08-07T04:21:53;15.00;99.90
40053;DHT22;25758;48.200;16.338;2023-08-07T04:24:19;15.00;99.90
40053;DHT22;25758;48.200;16.338;2023-08-07T04:26:45;15.10;99.90
40053;DHT22;25758;48.200;16.338;2023-08-07T04:29:24;15.00;99.90
40053;DHT22;25758;48.200;16.338;2023-08-07T04:31:49;15.00;99.90
40053;DHT22;25758;48.200;16.338;2023-08-07T04:34:16;14.90;99.90
40053;DHT22;25758;48.200;16.338;2023-08-07T04:43:30;14.90;99.90
40053;DHT22;25758;48.200;16.338;2023-08-07T04:45:55;14.90;99.90
40053;DHT22;25758;48.200;16.338;2023-08-07T04:48:21;14.80;99.90
40053;DHT22;25758;48.200;16.338;2023-08-07T04:50:47;14.80;99.90
40053;DHT22;25758;48.200;16.338;2023-08-07T04:53:13;14.80;99.90
40053;DHT22;25758;48.200;16.338;2023-08-07T04:55:49;14.80;99.90
40053;DHT22;25758;48.200;16.338;2023-08-07T04:58:20;14.80;99.90
40053;DHT22;25758;48.200;16.338;2023-08-07T05:00:46;14.80;99.90
40053;DHT22;25758;48.200;16.338;2023-08-07T05:03:12;14.80;99.90
40053;DHT22;25758;48.200;16.338;2023-08-07T05:05:48;14.80;99.90
40053;DHT22;25758;48.200;16.338;2023-08-07T05:08:16;14.80;99.90
40053;DHT22;25758;48.200;16.338;2023-08-07T05:10:42;14.80;99.90
40053;DHT22;25758;48.200;16.338;2023-08-07T05:13:07;14.80;99.90
40053;DHT22;25758;48.200;16.338;2023-08-07T05:16:00;14.80;99.90
40053;DHT22;25758;48.200;16.338;2023-08-07T05:18:25;14.80;99.90
40053;DHT22;25758;48.200;16.338;2023-08-07T05:20:51;14.80;99.90
40053;DHT22;25758;48.200;16.338;2023-08-07T05:23:16;14.80;99.90
40053;DHT22;25758;48.200;16.338;2023-08-07T05:25:45;14.80;99.90
40053;DHT22;25758;48.200;16.338;2023-08-07T05:28:21;14.80;99.90
40053;DHT22;25758;48.200;16.338;2023-08-07T05:30:46;14.90;99.90
40053;DHT22;25758;48.200;16.338;2023-08-07T05:33:21;14.80;99.90
40053;DHT22;25758;48.200;16.338;2023-08-07T05:35:48;14.90;99.90
40053;DHT22;25758;48.200;16.338;2023-08-07T05:38:15;14.80;99.90
40053;DHT22;25758;48.200;16.338;2023-08-07T05:40:40;14.80;99.90
40053;DHT22;25758;48.200;16.338;2023-08-07T05:43:06;14.80;99.90
40053;DHT22;25758;48.200;16.338;2023-08-07T05:45:37;14.80;99.90
40053;DHT22;25758;48.200;16.338;2023-08-07T05:48:03;14.70;99.90
40053;DHT22;25758;48.200;16.338;2023-08-07T05:50:28;14.70;99.90
40053;DHT22;25758;48.200;16.338;2023-08-07T05:52:54;14.70;99.90
40053;DHT22;25758;48.200;16.338;2023-08-07T05:55:20;14.60;99.90
40053;DHT22;25758;48.200;16.338;2023-08-07T05:57:45;14.60;99.90
40053;DHT22;25758;48.200;16.338;2023-08-07T06:00:11;14.60;99.90
40053;DHT22;25758;48.200;16.338;2023-08-07T06:02:42;14.60;99.90
40053;DHT22;25758;48.200;16.338;2023-08-07T06:05:08;14.50;99.90
40053;DHT22;25758;48.200;16.338;2023-08-07T06:07:35;14.60;99.90
40053;DHT22;25758;48.200;16.338;2023-08-07T06:10:00;14.30;99.90
40053;DHT22;25758;48.200;16.338;2023-08-07T06:12:26;14.40;99.90
40053;DHT22;25758;48.200;16.338;2023-08-07T06:14:52;14.30;99.90
40053;DHT22;25758;48.200;16.338;2023-08-07T06:17:18;14.40;99.90
40053;DHT22;25758;48.200;16.338;2023-08-07T06:19:44;14.30;99.90
40053;DHT22;25758;48.200;16.338;2023-08-07T06:22:09;14.30;99.90
40053;DHT22;25758;48.200;16.338;2023-08-07T06:24:35;14.30;99.90
40053;DHT22;25758;48.200;16.338;2023-08-07T06:27:02;14.30;99.90
40053;DHT22;25758;48.200;16.338;2023-08-07T06:29:28;14.30;99.90
40053;DHT22;25758;48.200;16.338;2023-08-07T06:31:53;14.40;99.90
40053;DHT22;25758;48.200;16.338;2023-08-07T06:34:19;14.30;99.90
40053;DHT22;25758;48.200;16.338;2023-08-07T06:36:44;14.40;99.90
40053;DHT22;25758;48.200;16.338;2023-08-07T06:39:10;14.50;99.90
40053;DHT22;25758;48.200;16.338;2023-08-07T06:41:37;14.50;99.90
40053;DHT22;25758;48.200;16.338;2023-08-07T06:44:02;14.60;99.90
40053;DHT22;25758;48.200;16.338;2023-08-07T06:46:28;14.70;99.90
40053;DHT22;25758;48.200;16.338;2023-08-07T06:48:54;14.80;99.90
40053;DHT22;25758;48.200;16.338;2023-08-07T06:51:20;14.90;99.90
40053;DHT22;25758;48.200;16.338;2023-08-07T06:53:45;14.90;99.90
40053;DHT22;25758;48.200;16.338;2023-08-07T06:56:11;14.80;99.90
40053;DHT22;25758;48.200;16.338;2023-08-07T06:58:37;14.90;99.90
40053;DHT22;25758;48.200;16.338;2023-08-07T07:01:02;14.90;99.90
40053;DHT22;25758;48.200;16.338;2023-08-07T07:03:28;14.90;99.90
40053;DHT22;25758;48.200;16.338;2023-08-07T07:05:53;14.80;99.90
40053;DHT22;25758;48.200;16.338;2023-08-07T07:08:20;14.80;99.90
40053;DHT22;25758;48.200;16.338;2023-08-07T07:10:46;14.70;99.90
40053;DHT22;25758;48.200;16.338;2023-08-07T07:13:11;14.70;99.90
40053;DHT22;25758;48.200;16.338;2023-08-07T07:15:37;14.70;99.90
40053;DHT22;25758;48.200;16.338;2023-08-07T07:18:02;14.70;99.90
40053;DHT22;25758;48.200;16.338;2023-08-07T07:20:28;14.70;99.90
40053;DHT22;25758;48.200;16.338;2023-08-07T07:22:54;14.60;99.90
40053;DHT22;25758;48.200;16.338;2023-08-07T07:25:19;14.60;99.90
40053;DHT22;25758;48.200;16.338;2023-08-07T07:27:45;14.50;99.90
40053;DHT22;25758;48.200;16.338;2023-08-07T07:30:10;14.60;99.90
40053;DHT22;25758;48.200;16.338;2023-08-07T07:32:50;14.60;99.90
40053;DHT22;25758;48.200;16.338;2023-08-07T07:35:15;14.70;99.90
40053;DHT22;25758;48.200;16.338;2023-08-07T07:37:41;14.60;99.90
40053;DHT22;25758;48.200;16.338;2023-08-07T07:40:07;14.70;99.90
40053;DHT22;25758;48.200;16.338;2023-08-07T07:42:33;14.60;99.90
40053;DHT22;25758;48.200;16.338;2023-08-07T07:44:59;14.60;99.90
40053;DHT22;25758;48.200;16.338;2023-08-07T07:47:24;14.70;99.90
40053;DHT22;25758;48.200;16.338;2023-08-07T07:50:06;14.60;99.90
40053;DHT22;25758;48.200;16.338;2023-08-07T07:52:32;14.60;99.90
40053;DHT22;25758;48.200;16.338;2023-08-07T07:54:58;14.60;99.90
40053;DHT22;25758;48.200;16.338;2023-08-07T07:57:24;14.60;99.90
40053;DHT22;25758;48.200;16.338;2023-08-07T07:59:50;14.70;99.90
40053;DHT22;25758;48.200;16.338;2023-08-07T08:02:15;14.70;99.90
40053;DHT22;25758;48.200;16.338;2023-08-07T08:04:42;14.70;99.90
40053;DHT22;25758;48.200;16.338;2023-08-07T08:07:08;14.80;99.90
40053;DHT22;25758;48.200;16.338;2023-08-07T08:09:34;14.70;99.90
40053;DHT22;25758;48.200;16.338;2023-08-07T08:11:59;14.70;99.90
40053;DHT22;25758;48.200;16.338;2023-08-07T08:14:25;14.80;99.90
40053;DHT22;25758;48.200;16.338;2023-08-07T08:16:51;14.80;99.90
40053;DHT22;25758;48.200;16.338;2023-08-07T08:19:16;14.90;99.90
40053;DHT22;25758;48.200;16.338;2023-08-07T08:21:42;14.90;99.90
40053;DHT22;25758;48.200;16.338;2023-08-07T08:24:08;14.90;99.90
40053;DHT22;25758;48.200;16.338;2023-08-07T08:26:34;15.10;99.90
40053;DHT22;25758;48.200;16.338;2023-08-07T08:29:00;15.20;99.90
40053;DHT22;25758;48.200;16.338;2023-08-07T08:31:25;15.20;99.90
40053;DHT22;25758;48.200;16.338;2023-08-07T08:33:51;15.20;99.90
40053;DHT22;25758;48.200;16.338;2023-08-07T08:36:17;15.30;99.90
40053;DHT22;25758;48.200;16.338;2023-08-07T08:38:43;15.40;99.90
40053;DHT22;25758;48.200;16.338;2023-08-07T08:41:11;15.30;99.90
40053;DHT22;25758;48.200;16.338;2023-08-07T08:43:38;15.20;99.90
40053;DHT22;25758;48.200;16.338;2023-08-07T08:46:06;15.20;99.90
40053;DHT22;25758;48.200;16.338;2023-08-07T08:48:35;15.10;99.90
40053;DHT22;25758;48.200;16.338;2023-08-07T08:51:04;15.10;99.90
40053;DHT22;25758;48.200;16.338;2023-08-07T08:53:32;15.20;99.90
40053;DHT22;25758;48.200;16.338;2023-08-07T08:55:59;15.10;99.90
40053;DHT22;25758;48.200;16.338;2023-08-07T08:58:26;15.60;99.90
40053;DHT22;25758;48.200;16.338;2023-08-07T09:00:53;15.40;99.90
40053;DHT22;25758;48.200;16.338;2023-08-07T09:03:27;15.10;99.90
40053;DHT22;25758;48.200;16.338;2023-08-07T09:05:57;16.30;99.90
40053;DHT22;25758;48.200;16.338;2023-08-07T09:08:26;14.80;99.90
40053;DHT22;25758;48.200;16.338;2023-08-07T09:10:52;15.10;99.90
40053;DHT22;25758;48.200;16.338;2023-08-07T09:13:22;16.10;99.90
40053;DHT22;25758;48.200;16.338;2023-08-07T09:15:50;15.40;99.90
40053;DHT22;25758;48.200;16.338;2023-08-07T09:18:17;14.50;99.90
40053;DHT22;25758;48.200;16.338;2023-08-07T09:20:44;14.80;99.90
40053;DHT22;25758;48.200;16.338;2023-08-07T09:23:11;15.20;99.90
40053;DHT22;25758;48.200;16.338;2023-08-07T09:25:37;14.60;99.90
40053;DHT22;25758;48.200;16.338;2023-08-07T09:28:04;14.50;99.90
40053;DHT22;25758;48.200;16.338;2023-08-07T09:30:35;14.50;99.90
40053;DHT22;25758;48.200;16.338;2023-08-07T09:33:01;14.30;99.90
40053;DHT22;25758;48.200;16.338;2023-08-07T09:35:30;13.30;99.90
40053;DHT22;25758;48.200;16.338;2023-08-07T09:37:57;13.50;99.90
40053;DHT22;25758;48.200;16.338;2023-08-07T09:40:23;11.00;99.90
40053;DHT22;25758;48.200;16.338;2023-08-07T09:42:53;16.50;99.90
40053;DHT22;25758;48.200;16.338;2023-08-07T09:45:39;10.70;99.90
40053;DHT22;25758;48.200;16.338;2023-08-07T09:48:06;12.70;99.90
40053;DHT22;25758;48.200;16.338;2023-08-07T09:50:32;11.20;99.90
40053;DHT22;25758;48.200;16.338;2023-08-07T09:52:58;14.50;99.90
40053;DHT22;25758;48.200;16.338;2023-08-07T09:55:25;14.90;99.90
40053;DHT22;25758;48.200;16.338;2023-08-07T09:57:55;14.00;99.90
40053;DHT22;25758;48.200;16.338;2023-08-07T10:00:21;14.30;99.90
40053;DHT22;25758;48.200;16.338;2023-08-07T10:02:48;14.40;99.90
40053;DHT22;25758;48.200;16.338;2023-08-07T10:05:15;14.20;99.90
40053;DHT22;25758;48.200;16.338;2023-08-07T10:07:41;16.60;99.90
40053;DHT22;25758;48.200;16.338;2023-08-07T10:10:08;13.90;99.90
40053;DHT22;25758;48.200;16.338;2023-08-07T10:12:36;14.10;99.90
40053;DHT22;25758;48.200;16.338;2023-08-07T10:15:02;13.90;99.90
40053;DHT22;25758;48.200;16.338;2023-08-07T10:17:29;14.00;99.90
40053;DHT22;25758;48.200;16.338;2023-08-07T10:19:57;11.40;99.90
40053;DHT22;25758;48.200;16.338;2023-08-07T10:22:29;13.80;99.90
40053;DHT22;25758;48.200;16.338;2023-08-07T10:24:57;14.10;99.90
40053;DHT22;25758;48.200;16.338;2023-08-07T10:27:34;12.90;99.90
40053;DHT22;25758;48.200;16.338;2023-08-07T10:30:02;14.10;99.90
40053;DHT22;25758;48.200;16.338;2023-08-07T10:32:30;12.90;99.90
40053;DHT22;25758;48.200;16.338;2023-08-07T10:34:57;14.10;99.90
40053;DHT22;25758;48.200;16.338;2023-08-07T10:37:50;14.10;99.90
40053;DHT22;25758;48.200;16.338;2023-08-07T10:40:16;13.90;99.90
40053;DHT22;25758;48.200;16.338;2023-08-07T10:45:21;15.20;99.90
40053;DHT22;25758;48.200;16.338;2023-08-07T10:48:12;14.20;99.90
40053;DHT22;25758;48.200;16.338;2023-08-07T10:53:29;13.70;99.90
40053;DHT22;25758;48.200;16.338;2023-08-07T10:55:55;14.40;99.90
40053;DHT22;25758;48.200;16.338;2023-08-07T10:58:31;14.10;99.90
40053;DHT22;25758;48.200;16.338;2023-08-07T11:03:45;13.70;99.90
40053;DHT22;25758;48.200;16.338;2023-08-07T11:06:13;10.00;99.90
40053;DHT22;25758;48.200;16.338;2023-08-07T11:08:40;12.40;99.90
40053;DHT22;25758;48.200;16.338;2023-08-07T11:11:10;14.00;99.90
40053;DHT22;25758;48.200;16.338;2023-08-07T11:13:36;14.70;99.90
40053;DHT22;25758;48.200;16.338;2023-08-07T11:16:03;13.70;99.90
40053;DHT22;25758;48.200;16.338;2023-08-07T11:18:30;14.70;99.90
40053;DHT22;25758;48.200;16.338;2023-08-07T11:20:57;12.90;99.90
40053;DHT22;25758;48.200;16.338;2023-08-07T11:23:27;13.50;99.90
40053;DHT22;25758;48.200;16.338;2023-08-07T11:25:53;13.90;99.90
40053;DHT22;25758;48.200;16.338;2023-08-07T11:28:20;9.40;99.90
40053;DHT22;25758;48.200;16.338;2023-08-07T11:30:51;13.80;99.90
40053;DHT22;25758;48.200;16.338;2023-08-07T11:33:20;13.80;99.90
40053;DHT22;25758;48.200;16.338;2023-08-07T11:35:47;13.60;99.90
40053;DHT22;25758;48.200;16.338;2023-08-07T11:38:15;10.30;99.90
40053;DHT22;25758;48.200;16.338;2023-08-07T11:40:53;14.00;99.90
40053;DHT22;25758;48.200;16.338;2023-08-07T11:43:19;15.40;99.90
40053;DHT22;25758;48.200;16.338;2023-08-07T11:45:45;13.20;99.90
40053;DHT22;25758;48.200;16.338;2023-08-07T11:48:11;13.00;99.90
40053;DHT22;25758;48.200;16.338;2023-08-07T11:50:37;12.90;99.90
40053;DHT22;25758;48.200;16.338;2023-08-07T11:53:03;10.20;99.90
40053;DHT22;25758;48.200;16.338;2023-08-07T11:55:29;15.90;99.90
40053;DHT22;25758;48.200;16.338;2023-08-07T11:57:55;13.60;99.90
40053;DHT22;25758;48.200;16.338;2023-08-07T12:00:25;14.50;99.90
40053;DHT22;25758;48.200;16.338;2023-08-07T12:06:05;14.00;99.90
40053;DHT22;25758;48.200;16.338;2023-08-07T12:11:01;13.90;99.90
40053;DHT22;25758;48.200;16.338;2023-08-07T12:13:29;14.10;99.90
40053;DHT22;25758;48.200;16.338;2023-08-07T12:15:55;14.20;99.90
40053;DHT22;25758;48.200;16.338;2023-08-07T12:18:26;13.70;99.90
40053;DHT22;25758;48.200;16.338;2023-08-07T12:21:00;13.90;99.90
40053;DHT22;25758;48.200;16.338;2023-08-07T12:23:26;13.40;99.90
40053;DHT22;25758;48.200;16.338;2023-08-07T12:25:52;14.10;99.90
40053;DHT22;25758;48.200;16.338;2023-08-07T12:28:18;14.20;99.90
40053;DHT22;25758;48.200;16.338;2023-08-07T12:30:45;12.90;99.90
40053;DHT22;25758;48.200;16.338;2023-08-07T12:33:12;14.50;99.90
40053;DHT22;25758;48.200;16.338;2023-08-07T12:35:38;12.90;99.90
40053;DHT22;25758;48.200;16.338;2023-08-07T12:38:04;14.30;99.90
40053;DHT22;25758;48.200;16.338;2023-08-07T12:40:33;14.30;99.90
40053;DHT22;25758;48.200;16.338;2023-08-07T12:43:02;14.60;99.90
40053;DHT22;25758;48.200;16.338;2023-08-07T12:45:28;14.70;99.90
40053;DHT22;25758;48.200;16.338;2023-08-07T12:47:54;16.00;99.90
40053;DHT22;25758;48.200;16.338;2023-08-07T12:50:20;14.10;99.90
40053;DHT22;25758;48.200;16.338;2023-08-07T12:52:45;13.80;99.90
40053;DHT22;25758;48.200;16.338;2023-08-07T12:55:11;14.20;99.90
40053;DHT22;25758;48.200;16.338;2023-08-07T12:57:41;14.50;99.90
40053;DHT22;25758;48.200;16.338;2023-08-07T13:00:10;14.60;99.90
40053;DHT22;25758;48.200;16.338;2023-08-07T13:02:39;15.40;99.90
40053;DHT22;25758;48.200;16.338;2023-08-07T13:05:05;14.40;99.90
40053;DHT22;25758;48.200;16.338;2023-08-07T13:07:31;15.00;99.90
40053;DHT22;25758;48.200;16.338;2023-08-07T13:09:57;15.70;99.90
40053;DHT22;25758;48.200;16.338;2023-08-07T13:12:23;14.80;99.90
40053;DHT22;25758;48.200;16.338;2023-08-07T13:14:49;14.70;99.90
40053;DHT22;25758;48.200;16.338;2023-08-07T13:17:14;14.90;99.90
40053;DHT22;25758;48.200;16.338;2023-08-07T13:19:40;15.20;99.90
40053;DHT22;25758;48.200;16.338;2023-08-07T13:22:07;15.50;99.90
40053;DHT22;25758;48.200;16.338;2023-08-07T13:24:33;17.20;99.90
40053;DHT22;25758;48.200;16.338;2023-08-07T13:26:58;16.00;99.90
40053;DHT22;25758;48.200;16.338;2023-08-07T13:29:24;15.60;99.90
40053;DHT22;25758;48.200;16.338;2023-08-07T13:31:51;15.90;99.90
40053;DHT22;25758;48.200;16.338;2023-08-07T13:34:17;16.30;99.90
40053;DHT22;25758;48.200;16.338;2023-08-07T13:36:43;18.60;99.90
40053;DHT22;25758;48.200;16.338;2023-08-07T13:39:08;16.50;99.90
40053;DHT22;25758;48.200;16.338;2023-08-07T13:41:34;16.00;99.90
40053;DHT22;25758;48.200;16.338;2023-08-07T13:44:00;16.00;99.90
40053;DHT22;25758;48.200;16.338;2023-08-07T13:46:27;16.10;99.90
40053;DHT22;25758;48.200;16.338;2023-08-07T13:48:53;16.40;99.90
40053;DHT22;25758;48.200;16.338;2023-08-07T13:51:19;16.20;99.90
40053;DHT22;25758;48.200;16.338;2023-08-07T13:53:46;16.20;99.90
40053;DHT22;25758;48.200;16.338;2023-08-07T13:56:12;15.80;99.90
40053;DHT22;25758;48.200;16.338;2023-08-07T13:58:39;16.40;99.90
40053;DHT22;25758;48.200;16.338;2023-08-07T14:01:06;16.70;99.90
40053;DHT22;25758;48.200;16.338;2023-08-07T14:03:34;16.70;99.90
40053;DHT22;25758;48.200;16.338;2023-08-07T14:06:01;15.40;99.90
40053;DHT22;25758;48.200;16.338;2023-08-07T14:08:27;16.80;99.90
40053;DHT22;25758;48.200;16.338;2023-08-07T14:10:54;16.50;99.90
40053;DHT22;25758;48.200;16.338;2023-08-07T14:13:21;17.00;99.90
40053;DHT22;25758;48.200;16.338;2023-08-07T14:15:47;18.80;99.90
40053;DHT22;25758;48.200;16.338;2023-08-07T14:18:13;16.70;99.90
40053;DHT22;25758;48.200;16.338;2023-08-07T14:20:40;14.90;99.90
40053;DHT22;25758;48.200;16.338;2023-08-07T14:23:06;16.00;99.90
40053;DHT22;25758;48.200;16.338;2023-08-07T14:25:32;16.30;99.90
40053;DHT22;25758;48.200;16.338;2023-08-07T14:27:58;14.80;99.90
40053;DHT22;25758;48.200;16.338;2023-08-07T14:30:24;16.10;99.90
40053;DHT22;25758;48.200;16.338;2023-08-07T14:32:50;15.90;99.90
40053;DHT22;25758;48.200;16.338;2023-08-07T14:35:16;15.90;99.90
40053;DHT22;25758;48.200;16.338;2023-08-07T14:37:41;16.00;99.90
40053;DHT22;25758;48.200;16.338;2023-08-07T14:40:08;16.10;99.90
40053;DHT22;25758;48.200;16.338;2023-08-07T14:42:34;16.20;99.90
40053;DHT22;25758;48.200;16.338;2023-08-07T14:44:59;15.90;99.90
40053;DHT22;25758;48.200;16.338;2023-08-07T14:47:26;15.90;99.90
40053;DHT22;25758;48.200;16.338;2023-08-07T14:49:52;15.80;99.90
40053;DHT22;25758;48.200;16.338;2023-08-07T14:52:18;16.00;99.90
40053;DHT22;25758;48.200;16.338;2023-08-07T14:54:44;15.80;99.90
40053;DHT22;25758;48.200;16.338;2023-08-07T14:57:09;15.90;99.90
40053;DHT22;25758;48.200;16.338;2023-08-07T14:59:35;16.20;99.90
40053;DHT22;25758;48.200;16.338;2023-08-07T15:02:01;15.00;99.90
40053;DHT22;25758;48.200;16.338;2023-08-07T15:04:27;16.00;99.90
40053;DHT22;25758;48.200;16.338;2023-08-07T15:06:53;16.50;99.90
40053;DHT22;25758;48.200;16.338;2023-08-07T15:09:19;15.80;99.90
40053;DHT22;25758;48.200;16.338;2023-08-07T15:11:46;15.30;99.90
40053;DHT22;25758;48.200;16.338;2023-08-07T15:14:12;16.90;99.90
40053;DHT22;25758;48.200;16.338;2023-08-07T15:16:38;15.50;99.90
40053;DHT22;25758;48.200;16.338;2023-08-07T15:19:04;16.50;99.90
40053;DHT22;25758;48.200;16.338;2023-08-07T15:21:31;16.90;99.90
40053;DHT22;25758;48.200;16.338;2023-08-07T15:23:57;17.00;99.90
40053;DHT22;25758;48.200;16.338;2023-08-07T15:26:23;16.80;99.90
40053;DHT22;25758;48.200;16.338;2023-08-07T15:28:49;16.70;99.90
40053;DHT22;25758;48.200;16.338;2023-08-07T15:31:35;14.30;99.90
40053;DHT22;25758;48.200;16.338;2023-08-07T15:34:02;16.70;99.90
40053;DHT22;25758;48.200;16.338;2023-08-07T15:36:28;16.80;99.90
40053;DHT22;25758;48.200;16.338;2023-08-07T15:39:00;17.20;99.90
40053;DHT22;25758;48.200;16.338;2023-08-07T15:41:25;16.90;99.90
40053;DHT22;25758;48.200;16.338;2023-08-07T15:43:51;17.00;99.90
40053;DHT22;25758;48.200;16.338;2023-08-07T15:46:18;17.10;99.90
40053;DHT22;25758;48.200;16.338;2023-08-07T15:48:44;17.10;99.90
40053;DHT22;25758;48.200;16.338;2023-08-07T15:51:10;17.00;99.90
40053;DHT22;25758;48.200;16.338;2023-08-07T15:53:36;17.00;99.90